Time;durP1;ratioP1;P1;durP2;ratioP2;P2;SDS_P1;SDS_P2;PMS_P1;PMS_P2;Temp;Humidity;BMP_temperature;BMP_pressure;BME280_temperature;BME280_humidity;BME280_pressure;Samples;Min_cycle;Max_cycle;Signal;HPM_P1;HPM_P2
2023/06/01 00:00:56;;;;;;;11.82;6.63;;;;;;;15.48;87.60;102198.56;5032434;28;20045;-61
2023/06/01 00:03:25;;;;;;;12.63;6.03;;;;;;;15.57;86.51;102188.72;5031950;28;20045;-61
2023/06/01 00:05:53;;;;;;;16.20;6.38;;;;;;;15.59;86.83;102189.28;5033281;28;20141;-61
2023/06/01 00:08:22;;;;;;;17.58;6.47;;;;;;;15.67;85.41;102196.19;5032851;28;20053;-62
2023/06/01 00:10:50;;;;;;;11.68;5.70;;;;;;;15.67;85.73;102190.69;5030830;28;20056;-61
2023/06/01 00:13:18;;;;;;;12.48;5.93;;;;;;;15.68;85.57;102193.19;5034380;28;20115;-62
2023/06/01 00:15:45;;;;;;;12.05;6.25;;;;;;;15.64;85.01;102191.25;5036842;28;20049;-59
2023/06/01 00:18:15;;;;;;;13.40;6.40;;;;;;;15.49;85.60;102200.22;5029618;28;20127;-62
2023/06/01 00:20:44;;;;;;;17.17;5.95;;;;;;;15.49;85.83;102197.47;5017791;28;20497;-61
2023/06/01 00:23:11;;;;;;;11.90;5.50;;;;;;;15.55;84.97;102196.41;5033496;28;20107;-62
2023/06/01 00:25:39;;;;;;;13.35;6.15;;;;;;;15.40;85.13;102196.34;5068592;28;20049;-60
2023/06/01 00:28:07;;;;;;;14.05;6.43;;;;;;;15.25;86.00;102189.69;5028458;28;20046;-61
2023/06/01 00:30:34;;;;;;;12.35;5.82;;;;;;;15.04;87.34;102188.72;5027145;28;20041;-61
2023/06/01 00:33:03;;;;;;;12.88;6.10;;;;;;;15.12;86.73;102185.47;5032533;28;20128;-63
2023/06/01 00:35:30;;;;;;;15.02;6.03;;;;;;;15.00;87.01;102187.59;5035071;28;20120;-61
2023/06/01 00:37:58;;;;;;;15.55;7.00;;;;;;;14.99;87.15;102183.19;5019046;28;20053;-62
2023/06/01 00:40:26;;;;;;;10.98;6.13;;;;;;;15.05;88.27;102186.78;5030352;28;20382;-61
2023/06/01 00:42:53;;;;;;;12.20;6.40;;;;;;;15.21;86.60;102184.97;5015527;28;20391;-61
2023/06/01 00:45:21;;;;;;;14.27;6.30;;;;;;;15.25;85.67;102188.81;5016499;28;20058;-61
2023/06/01 00:47:49;;;;;;;15.05;7.30;;;;;;;15.26;85.74;102188.56;5018210;28;20238;-60
2023/06/01 00:50:17;;;;;;;14.88;6.45;;;;;;;15.28;85.38;102188.31;5003873;28;20052;-63
2023/06/01 00:52:45;;;;;;;14.13;7.00;;;;;;;15.19;85.42;102193.47;5039872;28;20077;-62
2023/06/01 00:55:13;;;;;;;14.82;6.65;;;;;;;15.17;86.32;102190.16;5043224;28;20489;-63
2023/06/01 00:57:43;;;;;;;15.60;6.57;;;;;;;15.23;85.63;102197.34;5042538;28;20054;-61
2023/06/01 01:00:11;;;;;;;12.95;7.07;;;;;;;15.19;84.79;102190.72;5043558;28;20053;-62
2023/06/01 01:02:40;;;;;;;13.13;7.10;;;;;;;15.11;85.08;102194.81;5040357;28;20060;-63
2023/06/01 01:05:11;;;;;;;14.10;6.53;;;;;;;15.00;85.45;102203.22;5027719;28;20047;-61
2023/06/01 01:07:43;;;;;;;13.05;7.03;;;;;;;14.84;86.40;102205.88;5043337;28;20123;-62
2023/06/01 01:10:18;;;;;;;12.80;7.55;;;;;;;14.79;87.05;102205.00;5055558;28;20064;-62
2023/06/01 01:13:10;;;;;;;17.60;7.10;;;;;;;14.58;88.17;102204.03;5068008;28;20045;-61
2023/06/01 01:15:51;;;;;;;11.90;6.53;;;;;;;14.54;87.39;102200.97;5043282;28;20129;-60
2023/06/01 01:18:27;;;;;;;12.98;6.85;;;;;;;14.46;88.78;102204.97;5034894;28;20057;-61
2023/06/01 01:21:02;;;;;;;16.33;8.18;;;;;;;14.47;87.78;102203.88;5034297;28;20107;-61
2023/06/01 01:23:58;;;;;;;13.00;7.30;;;;;;;14.37;88.29;102201.03;5018336;28;20050;-61
2023/06/01 01:27:00;;;;;;;13.13;7.00;;;;;;;14.21;89.72;102199.22;5033844;28;20045;-61
2023/06/01 01:29:30;;;;;;;15.07;8.07;;;;;;;14.30;89.20;102205.09;5034301;28;20080;-61
2023/06/01 01:32:00;;;;;;;16.40;8.48;;;;;;;14.40;89.16;102205.19;5034482;28;20099;-61
2023/06/01 01:34:32;;;;;;;14.05;8.13;;;;;;;14.37;87.35;102201.03;5027863;28;20049;-61
2023/06/01 01:37:01;;;;;;;16.77;8.45;;;;;;;14.22;87.79;102204.47;5032787;28;20054;-62
2023/06/01 01:39:29;;;;;;;15.60;8.85;;;;;;;14.23;87.98;102200.63;5017703;28;20115;-62
2023/06/01 01:41:57;;;;;;;13.30;7.57;;;;;;;14.19;88.11;102206.88;5033064;28;20482;-62
2023/06/01 01:44:29;;;;;;;16.58;8.68;;;;;;;14.18;88.38;102203.31;5049909;28;20045;-62
2023/06/01 01:47:09;;;;;;;16.13;8.75;;;;;;;14.15;87.81;102214.00;5034729;28;20061;-61
2023/06/01 01:49:39;;;;;;;15.88;8.40;;;;;;;14.13;87.43;102210.69;5017619;28;20056;-64
2023/06/01 01:52:26;;;;;;;15.80;9.20;;;;;;;14.04;88.35;102208.38;5020031;28;20430;-62
2023/06/01 01:54:54;;;;;;;17.35;9.02;;;;;;;13.91;88.38;102219.75;5017392;28;20053;-62
2023/06/01 01:57:23;;;;;;;15.15;7.50;;;;;;;13.75;90.44;102209.69;5033558;28;20053;-59
2023/06/01 01:59:52;;;;;;;16.38;10.18;;;;;;;13.89;88.33;102207.41;5010239;28;20049;-62
2023/06/01 02:02:21;;;;;;;15.88;8.63;;;;;;;13.77;89.22;102213.81;5006786;28;20041;-62
2023/06/01 02:04:48;;;;;;;13.02;8.45;;;;;;;13.82;89.74;102210.31;5033511;28;20124;-60
2023/06/01 02:07:17;;;;;;;14.38;8.40;;;;;;;13.83;88.79;102212.81;5033367;28;20644;-61
2023/06/01 02:09:44;;;;;;;19.92;8.85;;;;;;;13.59;89.88;102212.25;5046008;28;20482;-62
2023/06/01 02:12:13;;;;;;;13.68;8.05;;;;;;;13.48;89.74;102215.09;5014410;28;20100;-62
2023/06/01 02:14:41;;;;;;;15.30;8.05;;;;;;;13.39;90.91;102211.97;5032376;28;20080;-62
2023/06/01 02:17:09;;;;;;;12.75;7.55;;;;;;;13.36;90.86;102218.78;5034527;28;20057;-63
2023/06/01 02:19:36;;;;;;;13.50;7.30;;;;;;;13.25;91.47;102211.44;5033138;28;20054;-63
2023/06/01 02:22:04;;;;;;;14.02;7.50;;;;;;;13.20;91.94;102198.56;5047487;28;20045;-62
2023/06/01 02:24:32;;;;;;;13.60;6.82;;;;;;;13.33;91.85;102204.78;5042461;28;20053;-60
2023/06/01 02:27:00;;;;;;;13.18;6.05;;;;;;;13.43;90.90;102199.44;5022736;28;20103;-62
2023/06/01 02:29:30;;;;;;;11.27;6.05;;;;;;;13.38;90.69;102204.84;5047065;28;20121;-61
2023/06/01 02:31:58;;;;;;;13.23;6.65;;;;;;;13.31;90.43;102198.72;5049390;28;20552;-61
2023/06/01 02:34:27;;;;;;;12.07;6.82;;;;;;;13.07;91.93;102195.34;5040843;28;20060;-62
2023/06/01 02:36:56;;;;;;;12.52;6.75;;;;;;;13.29;91.76;102189.94;5015784;28;20049;-63
2023/06/01 02:39:24;;;;;;;12.30;6.60;;;;;;;13.21;90.89;102189.25;5032757;28;20075;-62
2023/06/01 02:41:52;;;;;;;10.90;6.10;;;;;;;13.10;91.20;102206.59;5014091;28;20631;-60
2023/06/01 02:44:20;;;;;;;11.95;6.43;;;;;;;12.97;92.18;102198.75;5046012;28;20048;-63
2023/06/01 02:46:48;;;;;;;10.93;5.72;;;;;;;13.04;92.43;102195.84;5013142;28;20054;-62
2023/06/01 02:49:16;;;;;;;11.13;5.82;;;;;;;13.15;91.70;102198.44;5046500;28;20052;-61
2023/06/01 02:51:45;;;;;;;10.90;5.60;;;;;;;13.12;92.25;102201.69;4996831;28;20061;-63
2023/06/01 02:54:20;;;;;;;13.43;6.35;;;;;;;13.34;91.72;102195.47;5026553;28;20127;-62
2023/06/01 02:56:48;;;;;;;10.38;5.60;;;;;;;13.41;89.90;102198.84;5032183;28;20056;-62
2023/06/01 02:59:33;;;;;;;11.23;5.75;;;;;;;13.22;90.52;102196.38;5045301;28;20054;-61
2023/06/01 03:02:03;;;;;;;12.32;6.10;;;;;;;13.25;91.97;102199.69;5031825;28;20053;-60
2023/06/01 03:04:43;;;;;;;10.95;5.93;;;;;;;13.26;91.28;102202.19;5033475;28;20552;-60
2023/06/01 03:07:12;;;;;;;13.90;6.22;;;;;;;13.31;90.92;102205.00;5033480;28;20097;-61
2023/06/01 03:09:49;;;;;;;10.73;5.78;;;;;;;13.15;91.86;102206.66;5041238;28;20501;-59
2023/06/01 03:12:37;;;;;;;13.30;6.45;;;;;;;12.90;94.38;102200.81;5032820;28;20061;-63
2023/06/01 03:15:05;;;;;;;12.63;5.82;;;;;;;13.05;93.53;102201.03;5015080;28;20080;-67
2023/06/01 03:17:33;;;;;;;11.82;6.00;;;;;;;13.25;92.31;102199.69;5012627;28;20044;-62
2023/06/01 03:20:02;;;;;;;13.77;5.78;;;;;;;13.17;91.26;102199.03;5004382;28;20064;-62
2023/06/01 03:22:30;;;;;;;11.75;5.82;;;;;;;12.81;93.08;102207.78;5031449;28;20045;-62
2023/06/01 03:24:57;;;;;;;10.70;5.90;;;;;;;12.56;95.33;102200.81;5032339;28;20053;-61
2023/06/01 03:27:29;;;;;;;9.98;5.40;;;;;;;12.62;95.35;102199.81;5030429;28;20049;-62
2023/06/01 03:29:57;;;;;;;11.18;5.93;;;;;;;12.64;95.67;102197.66;5026639;28;20049;-63
2023/06/01 03:32:25;;;;;;;13.05;5.50;;;;;;;12.67;94.61;102194.44;5016350;28;20087;-61
2023/06/01 03:34:55;;;;;;;9.45;4.90;;;;;;;12.83;94.29;102198.25;5033298;28;20046;-63
2023/06/01 03:37:23;;;;;;;10.73;5.82;;;;;;;12.87;93.09;102199.41;5032301;28;20439;-61
2023/06/01 03:39:51;;;;;;;10.38;5.63;;;;;;;12.86;93.77;102196.91;5031507;28;20452;-60
2023/06/01 03:42:20;;;;;;;10.05;5.45;;;;;;;12.87;93.53;102196.69;5032502;28;20068;-63
2023/06/01 03:44:48;;;;;;;12.05;5.75;;;;;;;12.79;92.54;102192.47;5031851;28;20073;-61
2023/06/01 03:47:16;;;;;;;12.45;6.20;;;;;;;12.82;93.61;102193.00;5048141;28;20107;-58
2023/06/01 03:49:43;;;;;;;14.80;5.63;;;;;;;12.95;92.58;102196.25;5024821;28;20049;-62
2023/06/01 03:52:11;;;;;;;12.02;6.15;;;;;;;13.06;91.92;102190.91;5069025;28;20444;-62
2023/06/01 03:54:40;;;;;;;10.80;6.30;;;;;;;13.05;90.83;102198.31;5019951;28;20446;-62
2023/06/01 03:57:19;;;;;;;11.55;5.95;;;;;;;12.94;91.86;102210.16;5035776;28;20402;-59
2023/06/01 03:59:47;;;;;;;12.55;6.60;;;;;;;12.86;91.49;102205.13;5033003;28;20512;-61
2023/06/01 04:02:16;;;;;;;14.68;6.72;;;;;;;12.82;92.09;102212.16;5017510;28;20100;-61
2023/06/01 04:04:45;;;;;;;12.85;6.90;;;;;;;12.90;90.36;102214.50;5033588;28;20467;-61
2023/06/01 04:07:21;;;;;;;13.45;6.93;;;;;;;12.86;90.19;102219.63;5032714;28;20049;-61
2023/06/01 04:09:49;;;;;;;13.10;6.53;;;;;;;12.86;89.74;102218.81;5030738;28;20073;-62
2023/06/01 04:12:17;;;;;;;12.25;5.82;;;;;;;12.62;91.75;102210.75;5035069;28;20095;-60
2023/06/01 04:14:45;;;;;;;11.75;7.07;;;;;;;12.64;91.43;102214.06;5051810;28;20081;-61
2023/06/01 04:17:12;;;;;;;10.85;5.53;;;;;;;12.63;91.59;102208.84;5050663;28;20103;-61
2023/06/01 04:19:40;;;;;;;12.52;6.07;;;;;;;12.49;92.05;102211.09;5026534;28;20053;-62
2023/06/01 04:22:10;;;;;;;11.20;5.40;;;;;;;12.53;92.31;102210.34;5052004;28;20136;-62
2023/06/01 04:24:38;;;;;;;14.10;5.80;;;;;;;12.58;91.21;102201.41;5036587;28;20140;-62
2023/06/01 04:27:06;;;;;;;12.32;6.95;;;;;;;12.48;91.78;102206.69;5034938;28;20073;-62
2023/06/01 04:29:39;;;;;;;13.27;6.20;;;;;;;12.46;91.64;102214.28;5005315;28;20552;-63
2023/06/01 04:32:08;;;;;;;14.23;7.45;;;;;;;12.59;91.18;102214.00;5048442;28;20061;-63
2023/06/01 04:34:37;;;;;;;13.82;7.30;;;;;;;12.61;90.54;102217.31;5014934;28;20045;-61
2023/06/01 04:37:07;;;;;;;13.18;6.38;;;;;;;12.62;91.13;102218.94;5017667;28;20391;-63
2023/06/01 04:39:35;;;;;;;14.48;7.15;;;;;;;12.50;91.76;102220.94;5024409;28;20041;-62
2023/06/01 04:42:03;;;;;;;13.90;7.15;;;;;;;12.53;91.96;102225.91;5051600;28;20045;-61
2023/06/01 04:44:32;;;;;;;12.15;5.78;;;;;;;12.57;92.07;102219.69;5034732;28;20049;-63
2023/06/01 04:47:03;;;;;;;13.32;6.80;;;;;;;12.62;90.87;102224.41;5019309;28;20176;-63
2023/06/01 04:49:31;;;;;;;11.82;6.22;;;;;;;12.71;90.83;102227.59;5033044;28;20045;-59
2023/06/01 04:52:00;;;;;;;14.15;6.70;;;;;;;12.82;90.46;102226.69;5033774;28;20052;-61
2023/06/01 04:54:27;;;;;;;13.48;6.45;;;;;;;12.86;90.97;102221.53;5051648;28;20387;-61
2023/06/01 04:56:56;;;;;;;12.45;6.80;;;;;;;12.83;90.44;102225.59;5057696;28;20052;-62
2023/06/01 04:59:23;;;;;;;14.00;7.47;;;;;;;12.78;91.22;102222.78;5039349;28;20041;-61
2023/06/01 05:01:51;;;;;;;16.67;8.02;;;;;;;12.67;91.40;102224.50;5047887;28;20056;-62
2023/06/01 05:04:20;;;;;;;15.40;7.13;;;;;;;12.74;91.33;102216.16;5032835;28;20088;-63
2023/06/01 05:06:48;;;;;;;17.15;6.90;;;;;;;12.86;90.38;102211.41;5048823;28;20049;-65
2023/06/01 05:09:17;;;;;;;14.38;6.35;;;;;;;12.92;90.38;102217.81;5046405;28;20050;-62
2023/06/01 05:11:46;;;;;;;14.45;7.05;;;;;;;12.91;90.11;102213.41;5069059;28;20045;-61
2023/06/01 05:14:14;;;;;;;12.80;6.03;;;;;;;12.93;90.54;102214.00;5071219;28;20086;-63
2023/06/01 05:16:41;;;;;;;14.70;6.88;;;;;;;12.87;90.28;102210.34;5069564;28;20040;-63
2023/06/01 05:19:10;;;;;;;12.55;6.88;;;;;;;12.82;90.26;102217.63;5034557;28;20052;-63
2023/06/01 05:21:40;;;;;;;13.10;6.35;;;;;;;12.69;91.29;102216.88;5044078;28;20056;-62
2023/06/01 05:24:08;;;;;;;16.17;7.20;;;;;;;12.67;91.22;102210.84;5049360;28;20045;-62
2023/06/01 05:26:36;;;;;;;12.15;6.43;;;;;;;12.65;92.29;102210.28;5049282;28;20107;-64
2023/06/01 05:29:05;;;;;;;14.35;6.78;;;;;;;12.60;92.02;102201.13;5050409;28;20045;-64
2023/06/01 05:31:33;;;;;;;13.88;7.05;;;;;;;12.58;92.52;102213.16;5014130;28;20054;-62
2023/06/01 05:34:01;;;;;;;15.52;7.30;;;;;;;12.45;93.09;102212.66;4996700;28;20081;-61
2023/06/01 05:36:31;;;;;;;13.15;6.93;;;;;;;12.43;94.22;102212.06;5011700;28;20081;-64
2023/06/01 05:39:00;;;;;;;16.20;6.97;;;;;;;12.58;93.89;102213.16;5020047;28;20041;-64
2023/06/01 05:41:28;;;;;;;14.57;6.38;;;;;;;12.72;93.49;102218.28;5046314;28;20057;-60
2023/06/01 05:43:57;;;;;;;28.50;8.50;;;;;;;12.81;93.17;102216.00;5029876;28;20049;-64
2023/06/01 05:46:25;;;;;;;23.33;7.63;;;;;;;12.83;91.94;102220.13;5029929;28;20480;-64
2023/06/01 05:48:55;;;;;;;18.73;7.57;;;;;;;12.90;90.93;102219.97;5013839;28;20141;-63
2023/06/01 05:51:23;;;;;;;23.38;7.65;;;;;;;12.90;91.02;102217.25;5010081;28;20053;-63
2023/06/01 05:53:51;;;;;;;19.77;7.18;;;;;;;12.89;90.82;102221.88;5026815;28;20080;-64
2023/06/01 05:56:18;;;;;;;18.60;7.70;;;;;;;12.62;91.88;102221.69;5013166;28;20441;-62
2023/06/01 05:58:52;;;;;;;17.00;7.63;;;;;;;12.52;93.03;102224.25;4999940;28;20069;-63
2023/06/01 06:01:22;;;;;;;16.80;7.68;;;;;;;12.51;93.75;102222.59;5033217;28;20053;-62
2023/06/01 06:03:50;;;;;;;16.35;7.72;;;;;;;12.56;93.75;102223.53;5049720;28;20060;-63
2023/06/01 06:06:20;;;;;;;18.45;8.23;;;;;;;12.47;92.76;102229.63;5031866;28;20490;-61
2023/06/01 06:08:51;;;;;;;15.23;7.57;;;;;;;12.34;93.58;102217.94;5029460;28;20050;-61
2023/06/01 06:11:19;;;;;;;21.00;7.82;;;;;;;12.51;92.68;102220.69;5029137;28;20046;-61
2023/06/01 06:13:49;;;;;;;13.43;7.00;;;;;;;12.52;92.44;102235.19;5013986;28;20561;-61
2023/06/01 06:16:19;;;;;;;16.67;7.05;;;;;;;12.44;93.72;102238.34;5035219;28;20041;-63
2023/06/01 06:18:46;;;;;;;16.33;7.28;;;;;;;12.48;92.91;102229.41;5014917;28;20045;-63
2023/06/01 06:21:14;;;;;;;15.02;7.32;;;;;;;12.63;91.68;102233.44;5033131;28;20057;-63
2023/06/01 06:23:46;;;;;;;17.25;7.00;;;;;;;12.51;92.32;102236.28;5034636;28;20042;-62
2023/06/01 06:26:14;;;;;;;16.10;6.57;;;;;;;12.56;92.14;102225.44;5015240;28;20080;-65
2023/06/01 06:28:41;;;;;;;14.30;6.63;;;;;;;12.77;91.93;102230.16;5034065;28;20052;-63
2023/06/01 06:31:09;;;;;;;15.85;7.55;;;;;;;12.90;91.11;102222.72;5028844;28;20049;-62
2023/06/01 06:33:37;;;;;;;20.25;7.53;;;;;;;13.02;90.39;102223.44;5015808;28;20107;-63
2023/06/01 06:36:05;;;;;;;16.80;7.00;;;;;;;13.13;89.15;102219.78;5012970;28;20100;-65
2023/06/01 06:38:33;;;;;;;18.10;7.22;;;;;;;13.03;89.38;102224.25;5032198;28;20508;-62
2023/06/01 06:41:01;;;;;;;13.38;6.97;;;;;;;13.00;89.06;102225.59;5034551;28;20050;-62
2023/06/01 06:43:29;;;;;;;16.90;7.13;;;;;;;12.97;89.28;102220.63;5031781;28;20048;-64
2023/06/01 06:45:57;;;;;;;12.13;5.85;;;;;;;12.93;88.86;102224.94;5032656;28;20049;-62
2023/06/01 06:48:24;;;;;;;13.63;6.38;;;;;;;12.98;88.43;102235.97;5034228;28;20072;-64
2023/06/01 06:50:52;;;;;;;19.05;6.88;;;;;;;12.89;90.79;102231.97;5034184;28;20513;-63
2023/06/01 06:53:20;;;;;;;14.70;6.53;;;;;;;12.88;91.40;102227.59;5032401;28;20054;-63
2023/06/01 06:55:47;;;;;;;14.65;6.57;;;;;;;12.88;90.95;102233.06;5030986;28;20050;-64
2023/06/01 06:58:15;;;;;;;13.68;6.28;;;;;;;12.96;91.08;102227.16;5033133;28;20111;-63
2023/06/01 07:00:43;;;;;;;15.18;7.70;;;;;;;12.99;89.84;102241.19;5032265;28;20045;-65
2023/06/01 07:03:11;;;;;;;15.68;7.43;;;;;;;12.96;89.33;102236.22;5029759;28;20076;-63
2023/06/01 07:05:39;;;;;;;13.43;6.80;;;;;;;12.81;89.99;102235.97;5016680;28;20065;-61
2023/06/01 07:08:07;;;;;;;17.02;7.40;;;;;;;12.77;90.06;102238.38;5031523;28;20054;-63
2023/06/01 07:10:34;;;;;;;16.02;7.63;;;;;;;12.86;90.67;102235.22;5032499;28;20069;-63
2023/06/01 07:13:02;;;;;;;15.05;7.80;;;;;;;12.74;89.61;102233.38;5033791;28;20442;-62
2023/06/01 07:15:30;;;;;;;16.98;7.55;;;;;;;12.74;90.15;102230.63;5033050;28;20052;-63
2023/06/01 07:17:58;;;;;;;17.40;8.40;;;;;;;12.92;90.71;102228.75;5033154;28;20049;-67
2023/06/01 07:20:25;;;;;;;15.95;8.00;;;;;;;12.99;88.37;102229.44;5032650;28;20045;-64
2023/06/01 07:22:53;;;;;;;15.75;7.38;;;;;;;13.02;88.78;102222.63;5032766;28;20045;-65
2023/06/01 07:25:21;;;;;;;15.68;8.63;;;;;;;12.93;89.61;102224.94;5020504;28;20045;-62
2023/06/01 07:27:49;;;;;;;19.48;8.18;;;;;;;12.85;89.53;102223.44;5037972;28;20437;-63
2023/06/01 07:30:17;;;;;;;17.90;7.32;;;;;;;13.00;90.43;102225.59;5037949;28;20064;-61
2023/06/01 07:32:45;;;;;;;17.70;7.93;;;;;;;13.04;88.35;102226.75;5023494;28;20053;-62
2023/06/01 07:35:13;;;;;;;20.38;8.30;;;;;;;12.99;88.88;102218.47;5017445;28;20056;-63
2023/06/01 07:37:41;;;;;;;19.60;8.75;;;;;;;13.12;88.91;102226.31;5020413;28;20045;-64
2023/06/01 07:40:09;;;;;;;23.80;9.50;;;;;;;13.22;89.18;102233.84;5037384;28;20069;-64
2023/06/01 07:42:37;;;;;;;18.85;8.57;;;;;;;13.18;88.29;102228.06;5037293;28;20548;-64
2023/06/01 07:45:05;;;;;;;19.40;8.48;;;;;;;13.17;88.99;102226.41;5050704;28;20057;-64
2023/06/01 07:47:33;;;;;;;19.13;9.20;;;;;;;13.29;87.87;102225.50;5036521;28;20065;-63
2023/06/01 07:50:02;;;;;;;19.38;8.85;;;;;;;13.26;86.80;102232.28;5035953;28;20061;-63
2023/06/01 07:52:30;;;;;;;16.27;8.90;;;;;;;13.27;86.81;102225.75;5037494;28;20056;-63
2023/06/01 07:54:57;;;;;;;17.65;9.20;;;;;;;13.27;86.33;102225.75;5052607;28;20132;-64
2023/06/01 07:57:25;;;;;;;20.55;9.05;;;;;;;13.26;86.85;102228.72;5035027;28;20081;-64
2023/06/01 07:59:53;;;;;;;14.00;8.38;;;;;;;13.31;85.94;102228.81;5036276;28;20053;-63
2023/06/01 08:02:21;;;;;;;19.02;8.70;;;;;;;13.29;86.87;102223.59;5037022;28;20045;-65
2023/06/01 08:04:49;;;;;;;16.45;8.88;;;;;;;13.34;86.40;102220.09;5037090;28;20049;-63
2023/06/01 08:07:18;;;;;;;18.05;9.27;;;;;;;13.30;86.37;102218.94;5036206;28;20054;-63
2023/06/01 08:09:46;;;;;;;16.23;8.88;;;;;;;13.42;87.43;102227.88;5032101;28;20037;-61
2023/06/01 08:12:14;;;;;;;20.60;8.90;;;;;;;13.55;85.11;102222.03;5018998;28;20490;-64
2023/06/01 08:14:44;;;;;;;17.60;8.68;;;;;;;13.67;85.69;102212.88;5036497;28;20100;-64
2023/06/01 08:17:13;;;;;;;18.30;9.13;;;;;;;13.78;84.38;102223.72;5025646;28;20050;-63
2023/06/01 08:19:42;;;;;;;21.67;9.32;;;;;;;13.82;85.17;102222.09;5026414;28;20045;-64
2023/06/01 08:22:11;;;;;;;19.73;9.70;;;;;;;13.82;85.62;102216.63;5034317;28;20041;-64
2023/06/01 08:24:39;;;;;;;18.00;8.95;;;;;;;13.76;84.53;102214.91;5035463;28;20050;-63
2023/06/01 08:27:17;;;;;;;21.00;9.38;;;;;;;13.70;85.23;102212.38;5037064;28;20045;-63
2023/06/01 08:29:47;;;;;;;16.13;8.85;;;;;;;13.70;85.78;102212.38;5035598;28;20049;-63
2023/06/01 08:32:16;;;;;;;18.65;8.50;;;;;;;13.74;83.96;102208.03;5033733;28;20053;-64
2023/06/01 08:34:45;;;;;;;15.52;8.98;;;;;;;13.72;82.33;102204.72;5033113;28;20401;-65
2023/06/01 08:37:13;;;;;;;20.63;9.80;;;;;;;13.81;82.35;102212.25;5035919;28;20413;-65
2023/06/01 08:39:41;;;;;;;19.17;8.85;;;;;;;13.85;81.60;102210.66;5005449;28;20045;-64
2023/06/01 08:42:14;;;;;;;21.98;9.10;;;;;;;13.91;82.69;102207.97;5017479;28;20050;-64
2023/06/01 08:44:42;;;;;;;15.60;8.48;;;;;;;14.03;82.65;102204.00;5016628;28;20049;-63
2023/06/01 08:47:11;;;;;;;18.45;9.23;;;;;;;14.16;82.38;102210.97;5015130;28;20562;-64
2023/06/01 08:49:42;;;;;;;19.73;9.30;;;;;;;14.21;81.33;102200.06;5016432;28;20042;-64
2023/06/01 08:52:16;;;;;;;18.42;8.52;;;;;;;14.27;81.23;102190.00;5019944;28;20116;-62
2023/06/01 08:54:44;;;;;;;18.45;8.77;;;;;;;14.34;80.23;102198.00;5019193;28;20056;-63
2023/06/01 08:57:13;;;;;;;18.02;9.25;;;;;;;14.31;80.25;102195.75;5036089;28;20061;-63
2023/06/01 08:59:41;;;;;;;17.75;8.43;;;;;;;14.36;79.91;102185.69;5036098;28;20108;-63
2023/06/01 09:02:09;;;;;;;19.00;8.85;;;;;;;14.41;80.25;102185.72;5033741;28;20051;-63
2023/06/01 09:04:41;;;;;;;18.05;8.90;;;;;;;14.45;81.41;102186.84;5017430;28;20046;-61
2023/06/01 09:07:09;;;;;;;17.35;9.18;;;;;;;14.48;81.53;102189.09;5007946;28;20410;-63
2023/06/01 09:09:37;;;;;;;21.15;10.38;;;;;;;14.52;81.76;102185.81;5024061;28;20045;-62
2023/06/01 09:12:23;;;;;;;19.70;9.40;;;;;;;14.57;80.75;102185.88;5034561;28;20052;-62
2023/06/01 09:15:12;;;;;;;22.55;10.05;;;;;;;14.61;80.42;102184.28;5032948;28;20055;-64
2023/06/01 09:17:40;;;;;;;21.35;9.80;;;;;;;14.63;81.19;102182.94;5033453;28;20453;-63
2023/06/01 09:20:13;;;;;;;17.27;9.40;;;;;;;14.72;80.62;102179.69;5035258;28;20057;-63
2023/06/01 09:22:45;;;;;;;24.48;10.48;;;;;;;14.77;79.18;102168.75;5019539;28;20482;-62
2023/06/01 09:25:14;;;;;;;20.10;10.00;;;;;;;14.70;78.76;102188.22;5035558;28;20041;-62
2023/06/01 09:27:49;;;;;;;22.75;9.88;;;;;;;14.69;78.43;102183.78;5046471;28;20065;-63
2023/06/01 09:30:19;;;;;;;17.70;9.57;;;;;;;14.69;76.39;102172.81;5063407;28;20071;-64
2023/06/01 09:32:50;;;;;;;18.88;9.10;;;;;;;14.72;77.68;102161.34;5036796;28;20046;-63
2023/06/01 09:35:38;;;;;;;16.73;10.15;;;;;;;14.77;78.05;102161.38;5015897;28;20050;-62
2023/06/01 09:38:06;;;;;;;19.35;9.55;;;;;;;14.77;77.16;102166.88;5028838;28;20141;-63
2023/06/01 09:40:35;;;;;;;20.35;9.90;;;;;;;14.76;76.84;102162.44;5020360;28;20042;-61
2023/06/01 09:43:03;;;;;;;21.35;9.43;;;;;;;14.91;77.96;102167.22;5044503;28;20038;-62
2023/06/01 09:45:37;;;;;;;18.25;9.55;;;;;;;14.97;76.92;102168.09;5035561;28;20537;-61
2023/06/01 09:48:18;;;;;;;19.42;9.52;;;;;;;15.03;77.94;102164.28;5035087;28;20049;-62
2023/06/01 09:50:46;;;;;;;19.65;9.07;;;;;;;15.10;77.36;102162.13;5051914;28;20053;-64
2023/06/01 09:53:15;;;;;;;20.63;9.88;;;;;;;15.18;77.57;102158.06;5055045;28;20127;-61
2023/06/01 09:55:58;;;;;;;22.80;9.63;;;;;;;15.26;77.78;102152.88;5055008;28;20051;-60
2023/06/01 09:58:26;;;;;;;18.88;10.15;;;;;;;15.31;76.47;102152.06;5024880;28;20539;-62
2023/06/01 10:00:55;;;;;;;15.95;9.10;;;;;;;15.34;75.41;102146.03;5017657;28;20057;-61
2023/06/01 10:03:23;;;;;;;16.63;10.00;;;;;;;15.33;73.36;102147.97;5030067;28;20046;-61
2023/06/01 10:05:51;;;;;;;18.17;9.50;;;;;;;15.28;73.78;102139.72;5014917;28;20442;-62
2023/06/01 10:08:19;;;;;;;22.20;10.40;;;;;;;15.32;74.89;102143.59;5034197;28;20103;-61
2023/06/01 10:10:48;;;;;;;21.13;9.57;;;;;;;15.42;74.48;102140.06;5033651;28;20053;-61
2023/06/01 10:13:16;;;;;;;19.00;8.77;;;;;;;15.52;75.02;102133.78;5033381;28;20099;-61
2023/06/01 10:15:44;;;;;;;22.33;8.68;;;;;;;15.58;74.41;102140.09;5027842;28;20103;-60
2023/06/01 10:18:12;;;;;;;20.40;9.95;;;;;;;15.62;73.46;102144.78;5015646;28;20066;-60
2023/06/01 10:20:40;;;;;;;18.13;9.35;;;;;;;15.66;73.13;102140.41;5034654;28;20060;-62
2023/06/01 10:23:07;;;;;;;19.95;9.70;;;;;;;15.69;73.60;102137.13;5016847;28;20614;-61
2023/06/01 10:25:49;;;;;;;18.58;9.60;;;;;;;15.69;73.49;102133.56;5034692;28;20107;-61
2023/06/01 10:28:17;;;;;;;23.73;9.77;;;;;;;15.74;74.42;102131.66;5016330;28;20100;-62
2023/06/01 10:30:46;;;;;;;19.70;10.90;;;;;;;15.83;74.17;102128.41;5012057;28;20092;-64
2023/06/01 10:33:14;;;;;;;20.63;11.30;;;;;;;15.82;74.27;102126.75;5026286;28;20049;-60
2023/06/01 10:35:52;;;;;;;18.17;10.10;;;;;;;15.80;74.63;102131.69;4402744;28;10001824;-63
2023/06/01 10:38:20;;;;;;;20.27;10.98;;;;;;;15.83;74.44;102117.41;5024507;28;20247;-62
2023/06/01 10:40:47;;;;;;;19.13;10.73;;;;;;;15.85;73.81;102134.44;5010848;28;20168;-63
2023/06/01 10:43:36;;;;;;;16.20;9.82;;;;;;;15.87;73.66;102126.75;5012170;28;20104;-61
2023/06/01 10:46:35;;;;;;;18.95;10.43;;;;;;;15.95;73.78;102131.72;5029174;28;20061;-63
2023/06/01 10:49:04;;;;;;;20.23;10.02;;;;;;;16.00;73.51;102122.66;5029977;28;20046;-62
2023/06/01 10:51:32;;;;;;;22.65;10.55;;;;;;;16.00;72.14;102137.22;5011591;28;20095;-63
2023/06/01 10:54:29;;;;;;;19.45;10.02;;;;;;;16.06;73.41;102132.56;5013325;28;20108;-59
2023/06/01 10:57:22;;;;;;;19.27;10.25;;;;;;;16.06;72.17;102121.56;5029822;28;20045;-63
2023/06/01 11:00:27;;;;;;;19.30;9.85;;;;;;;16.08;72.86;102125.69;5017596;28;20053;-62
2023/06/01 11:02:56;;;;;;;18.63;9.50;;;;;;;16.16;73.36;102130.66;5029144;28;20722;-64
2023/06/01 11:05:47;;;;;;;18.45;8.90;;;;;;;16.27;71.24;102122.41;5010473;28;20046;-63
2023/06/01 11:08:31;;;;;;;20.35;10.68;;;;;;;16.30;68.93;102119.09;5024731;28;20201;-61
2023/06/01 11:11:00;;;;;;;16.98;9.10;;;;;;;16.37;68.22;102111.41;5036843;28;20117;-64
2023/06/01 11:13:34;;;;;;;18.30;9.63;;;;;;;16.39;68.96;102115.53;5018603;28;20784;-61
2023/06/01 11:16:04;;;;;;;17.40;8.95;;;;;;;16.41;70.09;102112.50;5034173;28;20042;-64
2023/06/01 11:18:58;;;;;;;17.60;9.88;;;;;;;16.50;68.68;102113.59;5035626;28;20049;-63
2023/06/01 11:21:34;;;;;;;17.48;8.98;;;;;;;16.50;67.89;102110.84;5037407;28;20050;-64
2023/06/01 11:24:12;;;;;;;;;;;;;;;16.50;67.74;102104.50;5035189;28;20052;-61
2023/06/01 11:26:41;;;;;;;21.42;9.43;;;;;;;16.55;67.43;102099.03;5035582;28;20379;-62
2023/06/01 11:29:16;;;;;;;17.17;9.20;;;;;;;16.60;67.57;102096.25;5023595;28;20049;-62
2023/06/01 11:32:05;;;;;;;18.48;8.75;;;;;;;16.68;67.84;102095.69;5032777;28;20045;-61